Nearby METAR Reports

 

KISP - Islip, New York, USA
Distance from station: SW 4mi, 6km
Updated: Mon, 08/20/2018 6:47 am EDT
Overcast
Overcast
 Wind from NNE
Wind: NNE 13 mph , 20 km/h
Temperature: 66°F , 19°C
Dew Point: 64°F , 18°C
Humidity: 94%
Barometer: 30.12 inHg , 1020 hPa
Clouds: Overcast
Visibility: 10 miles , 16 km
Cloud details: Few Clouds 700 ft
Mostly cloudy 1300 ft
Overcast 3400 ft
2018/08/20 10:47 KISP 201047Z 03011KT 10SM FEW007 BKN013 OVC034 19/18 A3012 RMK AO2 T01940178
KHWV - Shirley, New York, USA
Distance from station: E 10mi, 16km
Updated: Mon, 08/20/2018 5:56 am EDT
Overcast
Overcast
 Wind from NNE
Wind: NNE 3 mph , 6 km/h
Temperature: 66°F , 19°C
Dew Point: 66°F , 19°C
Humidity: 100%
Barometer: 30.10 inHg , 1019.3 hPa
Clouds: Overcast
Visibility: 10 miles , 16 km
Cloud details: Overcast 1400 ft
2018/08/20 09:56 KHWV 200956Z AUTO 03003KT 10SM OVC014 19/19 A3010 RMK AO2 SLP193 T01940189 $
 
KFRG - Farmingdale, New York, USA
Distance from station: WSW 20mi, 33km
Updated: Mon, 08/20/2018 5:53 am EDT
Overcast
Overcast
 Wind from NNE
Wind: NNE 7 mph , 11 km/h
Temperature: 66°F , 19°C
Dew Point: 63°F , 17°C
Humidity: 88%
Barometer: 30.10 inHg , 1019.3 hPa
Clouds: Overcast
Visibility: 10 miles , 16 km
Cloud details: Few Clouds 3400 ft
Overcast 8000 ft
2018/08/20 09:53 KFRG 200953Z AUTO 03006KT 10SM FEW034 OVC080 19/17 A3010 RMK AO2 SLP192 T01940167
KBDR - Bridgeport, Connecticut, USA
Distance from station: N 23mi, 37km
Updated: Mon, 08/20/2018 5:52 am EDT
Overcast
Overcast
 Wind from NNE
Wind: NNE 10 mph , 17 km/h
Temperature: 68°F , 20°C
Dew Point: 61°F , 16°C
Humidity: 78%
Barometer: 30.12 inHg , 1020 hPa
Clouds: Overcast
Visibility: 10 miles , 16 km
Cloud details: Mostly cloudy 2400 ft
Mostly cloudy 2900 ft
Overcast 3900 ft
2018/08/20 09:52 KBDR 200952Z AUTO 03009KT 10SM BKN024 BKN029 OVC039 20/16 A3012 RMK AO2 SLP199 T02000161
 
KFOK - Westhampton Beac, New York, USA
Distance from station: E 23mi, 37km
Updated: Mon, 08/20/2018 5:53 am EDT
Overcast
Overcast
 Wind from N
Wind: N 6 mph , 9 km/h
Temperature: 66°F , 19°C
Dew Point: 63°F , 17°C
Humidity: 88%
Barometer: 30.12 inHg , 1020 hPa
Clouds: Overcast
Visibility: 10 miles , 16 km
Cloud details: Overcast 1000 ft
2018/08/20 09:53 KFOK 200953Z AUTO 01005KT 10SM OVC010 19/17 A3012 RMK AO2 SLP199 T01940167
KHVN - New Haven/Tweed, Connecticut, USA
Distance from station: NNE 31mi, 50km
Updated: Mon, 08/20/2018 5:53 am EDT
Overcast
Overcast
 Wind from N
Wind: N 9 mph , 15 km/h
Temperature: 66°F , 19°C
Dew Point: 61°F , 16°C
Humidity: 83%
Barometer: 30.12 inHg , 1020 hPa
Clouds: Overcast
Visibility: 10 miles , 16 km
Cloud details: Overcast 2800 ft
2018/08/20 09:53 KHVN 200953Z AUTO 01008KT 10SM OVC028 19/16 A3012 RMK AO2 SLP198 T01940161
 
KHPN - White Plains, New York, USA
Distance from station: WNW 37mi, 60km
Updated: Mon, 08/20/2018 5:56 am EDT
Overcast
Overcast
 Wind from N
Wind: N 6 mph , 9 km/h
Temperature: 64°F , 18°C
Dew Point: 61°F , 16°C
Humidity: 88%
Barometer: 30.12 inHg , 1020 hPa
Clouds: Overcast
Visibility: 10 miles , 16 km
Cloud details: Overcast 3400 ft
2018/08/20 09:56 KHPN 200956Z 01005KT 10SM OVC034 18/16 A3012 RMK AO2 SLP197 T01780156 $
KJFK - Nyc/Jfk Arpt, New York, USA
Distance from station: WSW 40mi, 64km
Updated: Mon, 08/20/2018 5:51 am EDT
Overcast
Overcast
 Wind from N
Wind: N 9 mph , 15 km/h
Temperature: 68°F , 20°C
Dew Point: 63°F , 17°C
Humidity: 83%
Barometer: 30.11 inHg , 1019.6 hPa
Clouds: Overcast
Visibility: 10 miles , 16 km
Cloud details: Few Clouds 2500 ft
Overcast 8000 ft
2018/08/20 09:51 KJFK 200951Z 01008KT 10SM FEW025 OVC080 20/17 A3011 RMK AO2 SLP196 T02000172
 
KDXR - Danbury, Connecticut, USA
Distance from station: NNW 42mi, 68km
Updated: Mon, 08/20/2018 5:53 am EDT
Overcast
Overcast
 Wind from NE
Wind: NE 6 mph , 9 km/h
Temperature: 64°F , 18°C
Dew Point: 61°F , 16°C
Humidity: 88%
Barometer: 30.15 inHg , 1021 hPa
Clouds: Overcast
Visibility: 10 miles , 16 km
Cloud details: Overcast 3300 ft
2018/08/20 09:53 KDXR 200953Z AUTO 05005KT 10SM OVC033 18/16 A3015 RMK AO2 SLP207 T01780156 $
KHTO - East Hampton, New York, USA
Distance from station: E 43mi, 69km
Updated: Mon, 08/20/2018 6:35 am EDT
Overcast
Overcast
 Wind from NNE
Wind: NNE 7 mph , 11 km/h
Temperature: 66°F , 19°C
Dew Point: 64°F , 18°C
Humidity: 94%
Barometer: 30.11 inHg , 1019.6 hPa
Clouds: Overcast
Visibility: 10 miles , 16 km
Cloud details: Overcast 1100 ft
2018/08/20 10:35 KHTO 201035Z AUTO 03006KT 10SM OVC011 19/18 A3011 RMK AO2 T01880175
 
KOXC - Oxford/Waterbury, Connecticut, USA
Distance from station: N 43mi, 70km
Updated: Mon, 08/20/2018 5:51 am EDT
Overcast
Overcast
 Wind from NNE
Wind: NNE 12 mph , 19 km/h
Temperature: 63°F , 17°C
Dew Point: 61°F , 16°C
Humidity: 94%
Barometer: 30.15 inHg , 1021 hPa
Clouds: Overcast
Visibility: 10 miles , 16 km
Cloud details: Mostly cloudy 2200 ft
Overcast 8000 ft
2018/08/20 09:51 KOXC 200951Z AUTO 02010KT 10SM BKN022 OVC080 17/16 A3015 RMK AO2 SLP216 T01720156
KLGA - Nyc/La Guardia, New York, USA
Distance from station: W 44mi, 70km
Updated: Mon, 08/20/2018 5:51 am EDT
Mostly cloudy
Mostly cloudy
 Wind from N
Wind: N 8 mph , 13 km/h
Temperature: 70°F , 21°C
Dew Point: 61°F , 16°C
Humidity: 73%
Barometer: 30.10 inHg , 1019.3 hPa
Clouds: Mostly cloudy
Visibility: 10 miles , 16 km
Cloud details: Mostly cloudy 8000 ft
2018/08/20 09:51 KLGA 200951Z 01007KT 10SM BKN080 21/16 A3010 RMK AO2 SLP194 T02060156 $
 
KSNC - Chester, Connecticut, USA
Distance from station: NE 47mi, 76km
Updated: Mon, 08/20/2018 6:35 am EDT
Overcast
Overcast
 Wind from N
Wind: N 6 mph , 9 km/h
Temperature: 66°F , 19°C
Dew Point: 63°F , 17°C
Humidity: 88%
Barometer: 30.14 inHg , 1020.7 hPa
Clouds: Overcast
Visibility: 10 miles , 16 km
Cloud details: Few Clouds 1000 ft
Overcast 1600 ft
2018/08/20 10:35 KSNC 201035Z AUTO 01005KT 10SM FEW010 OVC016 19/17 A3014 RMK AO2
KMMK - Meriden, Connecticut, USA
Distance from station: NNE 48mi, 77km
Updated: Mon, 08/20/2018 5:53 am EDT
Overcast
Overcast
 Wind from NNW
Wind: NNW 6 mph , 9 km/h
Temperature: 66°F , 19°C
Dew Point: 59°F , 15°C
Humidity: 78%
Barometer: 30.13 inHg , 1020.3 hPa
Clouds: Overcast
Visibility: 10 miles , 16 km
Cloud details: Mostly cloudy 1600 ft
Overcast 4400 ft
2018/08/20 09:53 KMMK 200953Z AUTO 34005KT 10SM BKN016 OVC044 19/15 A3013 RMK AO2 SLP201 T01890150
 
KNYC - Nyc/Central Park, New York, USA
Distance from station: W 48mi, 77km
Updated: Mon, 08/20/2018 5:51 am EDT
Overcast
Overcast
 Wind from varies
Wind: varies 3 mph , 6 km/h
Temperature: 68°F , 20°C
Dew Point: 61°F , 16°C
Humidity: 78%
Barometer: 30.14 inHg , 1020.7 hPa
Clouds: Overcast
Visibility: 10 miles , 16 km
Cloud details: Overcast 8000 ft
2018/08/20 09:51 KNYC 200951Z AUTO VRB03KT 10SM OVC080 20/16 A3014 RMK AO2 SLP196 T02000161 $